Time;durP1;ratioP1;P1;durP2;ratioP2;P2;SDS_P1;SDS_P2;PMS_P1;PMS_P2;Temp;Humidity;BMP_temperature;BMP_pressure;BME280_temperature;BME280_humidity;BME280_pressure;Samples;Min_cycle;Max_cycle;Signal;HPM_P1;HPM_P2
2021/05/18 00:01:21;;;;;;;0.90;0.77;;;6.80;99.90;;;;;;5052095;28;20500;-66
2021/05/18 00:03:47;;;;;;;1.10;1.00;;;6.80;99.90;;;;;;5051646;28;20442;-67
2021/05/18 00:06:14;;;;;;;1.10;1.00;;;6.80;99.90;;;;;;5051303;28;20463;-67
2021/05/18 00:14:08;;;;;;;1.53;1.00;;;6.80;99.90;;;;;;5051477;28;20945;-66
2021/05/18 00:16:35;;;;;;;1.23;1.13;;;6.80;99.90;;;;;;5051650;28;20442;-66
2021/05/18 00:19:02;;;;;;;1.87;1.77;;;6.80;99.90;;;;;;5051548;28;20467;-67
2021/05/18 00:21:28;;;;;;;1.27;0.90;;;6.80;99.90;;;;;;5051738;28;20431;-66
2021/05/18 00:23:55;;;;;;;1.20;0.90;;;6.80;99.90;;;;;;5051489;28;20427;-66
2021/05/18 00:26:22;;;;;;;1.13;1.03;;;6.90;99.90;;;;;;5051279;28;20450;-66
2021/05/18 00:28:48;;;;;;;2.00;1.40;;;6.90;99.90;;;;;;5051571;28;20430;-65
2021/05/18 00:31:16;;;;;;;5.53;1.30;;;6.90;99.90;;;;;;5051447;28;20427;-66
2021/05/18 00:33:43;;;;;;;2.03;1.20;;;6.90;99.90;;;;;;5051516;28;20431;-66
2021/05/18 00:36:10;;;;;;;1.00;0.90;;;6.90;99.90;;;;;;5051366;28;20467;-66
2021/05/18 00:38:38;;;;;;;0.80;0.80;;;6.90;99.90;;;;;;5051228;28;20423;-66
2021/05/18 00:41:06;;;;;;;1.00;0.90;;;6.90;99.90;;;;;;5051469;28;20427;-66
2021/05/18 00:43:32;;;;;;;1.13;1.03;;;6.90;99.90;;;;;;5051322;28;20519;-66
2021/05/18 00:45:59;;;;;;;1.77;1.03;;;6.90;99.90;;;;;;5051250;28;20443;-66
2021/05/18 00:48:27;;;;;;;1.00;0.80;;;6.90;99.90;;;;;;5051287;28;20428;-66
2021/05/18 00:50:56;;;;;;;0.90;0.80;;;6.90;99.90;;;;;;5051171;28;20447;-66
2021/05/18 00:53:24;;;;;;;1.37;0.90;;;6.90;99.90;;;;;;5050929;28;20443;-66
2021/05/18 00:55:53;;;;;;;1.10;1.00;;;6.90;99.90;;;;;;5050864;28;20467;-66
2021/05/18 00:58:31;;;;;;;1.30;1.20;;;6.90;99.90;;;;;;5051181;28;20438;-66
2021/05/18 01:01:01;;;;;;;1.30;1.20;;;6.90;99.90;;;;;;5051243;28;20427;-66
2021/05/18 01:03:30;;;;;;;2.20;1.30;;;6.90;99.90;;;;;;5050763;28;20446;-66
2021/05/18 01:08:42;;;;;;;1.27;0.97;;;6.90;99.90;;;;;;5050958;28;20946;-66
2021/05/18 01:11:09;;;;;;;1.20;1.10;;;6.90;99.90;;;;;;5050608;28;20428;-66
2021/05/18 01:13:36;;;;;;;1.20;1.10;;;6.90;99.90;;;;;;5050619;28;20422;-66
2021/05/18 01:16:05;;;;;;;6.10;1.27;;;6.90;99.90;;;;;;5050714;28;20496;-66
2021/05/18 01:18:37;;;;;;;1.10;1.00;;;6.90;99.90;;;;;;5050787;28;20569;-66
2021/05/18 01:21:06;;;;;;;1.20;0.93;;;6.90;99.90;;;;;;5050738;28;20431;-66
2021/05/18 01:23:33;;;;;;;1.07;0.97;;;6.90;99.90;;;;;;5050790;28;20434;-66
2021/05/18 01:26:01;;;;;;;3.90;0.77;;;6.90;99.90;;;;;;5050539;28;20516;-66
2021/05/18 01:28:28;;;;;;;1.10;0.90;;;6.90;99.90;;;;;;5050652;28;20765;-66
2021/05/18 01:30:55;;;;;;;0.90;0.80;;;6.90;99.90;;;;;;5050782;28;20934;-65
2021/05/18 01:33:22;;;;;;;1.00;0.90;;;6.90;99.90;;;;;;5050515;28;20424;-66
2021/05/18 01:35:49;;;;;;;1.30;1.20;;;6.90;99.90;;;;;;5050526;28;20831;-64
2021/05/18 01:38:20;;;;;;;8.97;1.13;;;6.80;99.90;;;;;;5050552;28;20452;-66
2021/05/18 01:43:32;;;;;;;0.90;0.70;;;6.80;99.90;;;;;;5050323;28;21125;-67
2021/05/18 01:45:58;;;;;;;1.03;0.93;;;6.90;99.90;;;;;;5050640;28;20816;-66
2021/05/18 01:48:25;;;;;;;1.03;0.63;;;6.90;99.90;;;;;;5050503;28;20439;-64
2021/05/18 01:50:52;;;;;;;0.87;0.80;;;6.80;99.90;;;;;;5050487;28;20434;-65
2021/05/18 01:53:21;;;;;;;0.80;0.70;;;6.80;99.90;;;;;;5050599;28;20445;-66
2021/05/18 01:55:58;;;;;;;2.30;1.00;;;6.90;99.90;;;;;;5050000;28;20466;-66
2021/05/18 01:58:25;;;;;;;0.97;0.87;;;6.80;99.90;;;;;;5050790;28;20431;-67
2021/05/18 02:00:52;;;;;;;1.50;0.90;;;6.80;99.90;;;;;;5050152;28;20501;-67
2021/05/18 02:03:19;;;;;;;1.10;0.80;;;6.80;99.90;;;;;;5050323;28;20434;-66
2021/05/18 02:05:45;;;;;;;4.07;1.10;;;6.80;99.90;;;;;;5050199;28;20460;-66
2021/05/18 02:08:15;;;;;;;1.00;0.90;;;6.80;99.90;;;;;;5050463;28;20947;-66
2021/05/18 02:10:42;;;;;;;1.00;0.90;;;6.80;99.90;;;;;;5049919;28;20435;-67
2021/05/18 02:13:10;;;;;;;1.27;1.17;;;6.80;99.90;;;;;;5050024;28;20450;-66
2021/05/18 02:15:42;;;;;;;0.90;0.80;;;6.80;99.90;;;;;;5050126;28;20448;-67
2021/05/18 02:21:08;;;;;;;3.03;1.10;;;6.70;99.90;;;;;;5051045;28;20478;-66
2021/05/18 02:26:21;;;;;;;1.23;1.13;;;6.70;99.90;;;;;;5053792;28;20457;-66
2021/05/18 02:28:48;;;;;;;0.90;0.80;;;6.80;99.90;;;;;;5053986;28;20434;-67
2021/05/18 02:31:14;;;;;;;2.90;0.97;;;6.80;99.90;;;;;;5053758;28;20438;-66
2021/05/18 02:33:45;;;;;;;1.83;0.80;;;6.80;99.90;;;;;;5053647;28;20435;-66
2021/05/18 02:36:12;;;;;;;1.17;0.80;;;6.70;99.90;;;;;;5053506;28;20461;-64
2021/05/18 02:38:39;;;;;;;2.23;0.60;;;6.70;99.90;;;;;;5053796;28;20427;-65
2021/05/18 02:41:06;;;;;;;0.90;0.80;;;6.60;99.90;;;;;;5053299;28;20474;-65
2021/05/18 02:43:40;;;;;;;1.10;1.00;;;6.70;99.90;;;;;;5053440;28;20469;-66
2021/05/18 02:46:15;;;;;;;3.20;0.80;;;6.70;99.90;;;;;;5053766;28;20516;-65
2021/05/18 02:51:26;;;;;;;1.10;0.77;;;6.70;99.90;;;;;;5053479;28;20473;-66
2021/05/18 02:53:53;;;;;;;1.00;0.90;;;6.70;99.90;;;;;;5053470;28;20452;-66
2021/05/18 02:56:26;;;;;;;1.30;0.80;;;6.60;99.90;;;;;;5053342;28;20466;-66
2021/05/18 02:58:59;;;;;;;1.00;0.83;;;6.60;99.90;;;;;;5053463;28;20470;-65
2021/05/18 03:01:26;;;;;;;2.80;0.87;;;6.70;99.90;;;;;;5053432;28;20928;-66
2021/05/18 03:03:53;;;;;;;1.40;1.13;;;6.70;99.90;;;;;;5053132;28;20423;-66
2021/05/18 03:06:20;;;;;;;0.90;0.70;;;6.70;99.90;;;;;;5053103;28;20468;-66
2021/05/18 03:08:47;;;;;;;0.90;0.80;;;6.70;99.90;;;;;;5053248;28;20422;-66
2021/05/18 03:11:14;;;;;;;1.27;0.87;;;6.70;99.90;;;;;;5052781;28;20423;-66
2021/05/18 03:13:40;;;;;;;1.13;1.03;;;6.70;99.90;;;;;;5052939;28;20443;-66
2021/05/18 03:16:08;;;;;;;2.40;1.57;;;6.70;99.90;;;;;;5052921;28;20450;-66
2021/05/18 03:18:35;;;;;;;4.30;1.10;;;6.70;99.90;;;;;;5053193;28;20443;-66
2021/05/18 03:21:02;;;;;;;0.90;0.80;;;6.70;99.90;;;;;;5052666;28;20502;-66
2021/05/18 03:23:29;;;;;;;0.90;0.80;;;6.60;99.90;;;;;;5052705;28;20441;-66
2021/05/18 03:25:56;;;;;;;1.47;1.00;;;6.70;99.90;;;;;;5052513;28;20873;-66
2021/05/18 03:28:23;;;;;;;0.80;0.70;;;6.70;99.90;;;;;;5052719;28;20576;-66
2021/05/18 03:31:07;;;;;;;1.77;1.00;;;6.70;99.90;;;;;;5052820;28;20443;-65
2021/05/18 03:36:19;;;;;;;1.97;0.70;;;6.80;99.90;;;;;;5052621;28;20990;-66
2021/05/18 03:38:48;;;;;;;1.07;0.80;;;6.80;99.90;;;;;;5052606;28;20427;-66
2021/05/18 03:41:18;;;;;;;1.00;0.80;;;6.80;99.90;;;;;;5052179;28;20419;-66
2021/05/18 03:43:52;;;;;;;1.10;0.80;;;6.70;99.90;;;;;;5052184;28;20467;-66
2021/05/18 03:54:49;;;;;;;1.27;0.70;;;6.70;99.90;;;;;;5052165;28;20480;-66
2021/05/18 04:02:55;;;;;;;1.33;0.80;;;6.70;99.90;;;;;;5052203;28;20429;-66
2021/05/18 04:11:30;;;;;;;1.53;0.80;;;6.70;99.90;;;;;;5051672;28;20414;-66
2021/05/18 04:16:53;;;;;;;0.80;0.67;;;6.80;99.90;;;;;;5051898;28;20514;-66
2021/05/18 04:19:21;;;;;;;1.00;0.80;;;6.80;99.90;;;;;;5051769;28;20469;-66
2021/05/18 04:38:48;;;;;;;1.00;0.80;;;6.70;99.90;;;;;;5051550;28;20431;-66
2021/05/18 04:41:37;;;;;;;5.50;1.00;;;6.80;99.90;;;;;;5050973;28;20507;-66
2021/05/18 04:52:20;;;;;;;1.10;0.97;;;6.70;99.90;;;;;;5051316;28;20468;-65
2021/05/18 04:55:15;;;;;;;1.40;1.20;;;6.70;99.90;;;;;;5051020;28;20446;-65
2021/05/18 05:00:34;;;;;;;2.00;1.10;;;6.80;99.90;;;;;;5048735;28;20464;-66
2021/05/18 05:03:18;;;;;;;1.07;0.90;;;6.80;99.90;;;;;;5050835;28;20442;-66
2021/05/18 05:08:30;;;;;;;1.00;0.90;;;6.90;99.90;;;;;;5027912;28;20514;-67
2021/05/18 05:16:29;;;;;;;1.83;1.00;;;6.90;99.90;;;;;;5039669;28;20566;-67
2021/05/18 05:18:55;;;;;;;0.93;0.83;;;7.00;99.90;;;;;;5051059;28;20445;-66
2021/05/18 05:21:27;;;;;;;1.10;1.00;;;7.00;99.90;;;;;;5050796;28;20489;-67
2021/05/18 05:23:54;;;;;;;1.93;1.10;;;7.00;99.90;;;;;;5050940;28;20493;-66
2021/05/18 05:26:22;;;;;;;3.60;0.93;;;7.00;99.90;;;;;;5048604;28;20467;-68
2021/05/18 05:28:49;;;;;;;1.20;1.10;;;7.00;99.90;;;;;;5060566;28;20458;-66
2021/05/18 05:31:16;;;;;;;2.70;0.93;;;7.00;99.90;;;;;;5070042;28;20442;-66
2021/05/18 05:33:43;;;;;;;1.57;1.00;;;7.00;99.90;;;;;;5040099;28;20440;-66
2021/05/18 05:36:10;;;;;;;1.30;1.10;;;7.00;99.90;;;;;;5030787;28;20449;-66
2021/05/18 05:38:37;;;;;;;0.97;0.83;;;7.10;99.90;;;;;;5039289;28;20435;-66
2021/05/18 05:41:04;;;;;;;2.60;0.80;;;7.00;99.90;;;;;;5047915;28;20466;-66
2021/05/18 05:43:32;;;;;;;1.13;0.83;;;7.00;99.90;;;;;;5050411;28;20442;-66
2021/05/18 05:45:59;;;;;;;1.10;1.00;;;7.00;99.90;;;;;;5050799;28;20511;-67
2021/05/18 05:48:25;;;;;;;6.20;1.00;;;7.00;99.90;;;;;;5050551;28;20447;-67
2021/05/18 05:50:52;;;;;;;1.30;0.83;;;6.90;99.90;;;;;;5050666;28;20838;-67
2021/05/18 05:53:19;;;;;;;1.00;0.90;;;7.00;99.90;;;;;;5050431;28;20801;-67
2021/05/18 05:55:45;;;;;;;0.93;0.83;;;7.00;99.90;;;;;;5053073;28;20463;-67
2021/05/18 05:58:12;;;;;;;1.97;1.00;;;7.00;99.90;;;;;;5054383;28;20426;-66
2021/05/18 06:00:40;;;;;;;1.00;0.83;;;7.00;99.90;;;;;;5054658;28;20470;-66
2021/05/18 06:03:07;;;;;;;0.93;0.83;;;7.00;99.90;;;;;;5054328;28;20447;-66
2021/05/18 06:05:34;;;;;;;1.20;1.10;;;7.00;99.90;;;;;;5054500;28;20446;-67
2021/05/18 06:08:00;;;;;;;1.60;0.90;;;7.00;99.90;;;;;;5054331;28;20442;-66
2021/05/18 06:10:29;;;;;;;1.00;0.90;;;7.00;99.90;;;;;;5054333;28;20518;-66
2021/05/18 06:13:08;;;;;;;1.00;0.77;;;7.00;99.90;;;;;;5054058;28;20454;-66
2021/05/18 06:29:58;;;;;;;1.30;1.20;;;7.00;99.90;;;;;;5054090;28;20779;-67
2021/05/18 06:43:36;;;;;;;1.97;1.87;;;7.00;99.90;;;;;;5052573;28;20474;-65
2021/05/18 06:46:13;;;;;;;1.10;1.00;;;7.00;99.90;;;;;;5053809;28;20914;-67
2021/05/18 06:48:41;;;;;;;1.43;1.20;;;7.00;99.90;;;;;;5053531;28;20441;-65
2021/05/18 06:51:14;;;;;;;2.00;1.20;;;7.10;99.90;;;;;;5053577;28;20431;-66
2021/05/18 06:53:53;;;;;;;1.20;1.10;;;7.10;99.90;;;;;;5051271;28;20931;-66
2021/05/18 06:56:20;;;;;;;1.20;1.10;;;7.10;99.90;;;;;;5047026;28;20967;-66
2021/05/18 07:01:32;;;;;;;1.13;1.03;;;7.10;99.90;;;;;;5049453;28;20434;-66
2021/05/18 07:04:04;;;;;;;2.63;1.10;;;7.20;99.90;;;;;;5052147;28;20443;-66
2021/05/18 07:06:44;;;;;;;1.20;1.10;;;7.20;99.90;;;;;;5044981;28;20984;-66
2021/05/18 07:09:11;;;;;;;1.37;1.27;;;7.30;99.90;;;;;;5044127;28;20474;-66
2021/05/18 07:11:38;;;;;;;1.90;1.27;;;7.40;99.90;;;;;;5041907;28;20440;-66
2021/05/18 07:14:05;;;;;;;1.30;1.20;;;7.40;99.90;;;;;;5043542;28;20800;-66
2021/05/18 07:16:31;;;;;;;1.13;1.03;;;7.50;99.90;;;;;;5046825;28;20458;-66
2021/05/18 07:18:59;;;;;;;2.80;1.40;;;7.60;99.90;;;;;;5046996;28;20477;-66
2021/05/18 07:21:26;;;;;;;0.90;0.80;;;7.60;99.90;;;;;;5043482;28;20463;-66
2021/05/18 07:23:54;;;;;;;1.23;1.10;;;7.70;99.90;;;;;;5041759;28;20425;-66
2021/05/18 07:26:21;;;;;;;1.93;1.83;;;7.80;99.90;;;;;;5047380;28;20494;-66
2021/05/18 07:28:47;;;;;;;3.33;1.20;;;8.00;99.90;;;;;;5046739;28;20432;-66
2021/05/18 07:31:14;;;;;;;1.33;1.23;;;8.00;99.90;;;;;;5043077;28;20789;-66
2021/05/18 07:33:41;;;;;;;1.20;1.10;;;7.90;99.90;;;;;;5046738;28;20958;-66
2021/05/18 07:36:09;;;;;;;1.57;1.03;;;7.90;99.90;;;;;;5045973;28;20478;-72
2021/05/18 07:38:41;;;;;;;1.40;1.20;;;7.90;99.90;;;;;;5046941;28;21130;-71
2021/05/18 07:41:09;;;;;;;1.30;1.20;;;8.00;99.90;;;;;;5045648;28;20470;-71
2021/05/18 07:43:37;;;;;;;1.77;1.13;;;8.10;99.90;;;;;;5042184;28;20444;-70
2021/05/18 07:46:06;;;;;;;1.10;1.00;;;8.10;99.90;;;;;;5047893;28;20876;-69
2021/05/18 07:48:39;;;;;;;2.37;2.17;;;8.10;99.90;;;;;;5043960;28;20448;-69
2021/05/18 07:51:17;;;;;;;1.17;1.07;;;8.10;99.90;;;;;;5041834;28;20547;-68
2021/05/18 07:59:23;;;;;;;1.30;1.00;;;8.30;99.90;;;;;;5047797;28;21099;-70
2021/05/18 08:07:36;;;;;;;9.50;1.80;;;8.30;99.90;;;;;;4990130;28;20471;-72
2021/05/18 08:10:09;;;;;;;1.23;1.07;;;8.10;99.90;;;;;;5025126;28;20463;-71
2021/05/18 08:12:37;;;;;;;3.33;0.90;;;7.80;99.90;;;;;;5043919;28;20419;-71
2021/05/18 08:15:21;;;;;;;0.80;0.60;;;7.50;99.90;;;;;;5051212;28;20446;-71
2021/05/18 08:17:59;;;;;;;0.90;0.70;;;7.30;99.90;;;;;;5051304;28;20436;-70
2021/05/18 09:49:56;;;;;;;3.23;0.83;;;9.60;99.90;;;;;;5030713;28;20422;-71
2021/05/18 10:35:57;;;;;;;1.03;0.93;;;9.60;99.90;;;;;;5050368;28;20450;-71
2021/05/18 10:38:25;;;;;;;1.50;0.80;;;9.90;99.90;;;;;;5050057;28;20443;-71
2021/05/18 10:40:53;;;;;;;1.10;0.80;;;10.20;99.90;;;;;;5050120;28;20840;-71
2021/05/18 10:43:29;;;;;;;1.13;0.90;;;10.30;99.90;;;;;;5053539;28;20429;-71
2021/05/18 10:46:05;;;;;;;1.60;1.10;;;10.20;99.90;;;;;;5053675;28;20467;-71
2021/05/18 10:49:03;;;;;;;1.30;0.97;;;10.60;99.90;;;;;;5053739;28;20576;-71
2021/05/18 10:51:36;;;;;;;0.90;0.70;;;11.00;99.90;;;;;;5019665;28;20518;-72
2021/05/18 10:54:14;;;;;;;3.03;0.80;;;11.00;99.90;;;;;;5052782;28;20473;-67
2021/05/18 10:57:13;;;;;;;2.10;1.20;;;10.80;99.90;;;;;;5053361;28;20446;-66
2021/05/18 10:59:42;;;;;;;3.47;1.53;;;10.60;99.90;;;;;;5053255;28;20439;-66
2021/05/18 11:02:12;;;;;;;1.23;0.80;;;10.50;99.90;;;;;;5053253;28;20920;-66
2021/05/18 11:04:40;;;;;;;1.10;1.00;;;10.40;99.90;;;;;;5053216;28;20431;-66
2021/05/18 11:07:09;;;;;;;1.27;1.00;;;10.40;99.90;;;;;;5053454;28;20947;-66
2021/05/18 11:09:37;;;;;;;1.60;1.10;;;10.50;99.90;;;;;;5052104;28;20504;-66
2021/05/18 11:12:07;;;;;;;2.63;1.00;;;10.60;99.90;;;;;;5052957;28;20810;-66
2021/05/18 11:14:35;;;;;;;3.53;1.17;;;10.80;99.90;;;;;;5052887;28;20507;-67
2021/05/18 11:17:11;;;;;;;2.57;1.00;;;11.30;99.90;;;;;;5052909;28;20503;-71
2021/05/18 11:20:02;;;;;;;1.63;1.10;;;11.80;99.90;;;;;;5053001;28;20431;-71
2021/05/18 11:25:28;;;;;;;1.00;0.90;;;11.80;99.90;;;;;;5052560;28;20461;-70
2021/05/18 11:28:04;;;;;;;1.10;0.90;;;11.90;99.90;;;;;;5052140;28;20446;-67
2021/05/18 11:30:31;;;;;;;1.60;1.13;;;12.20;99.90;;;;;;5052781;28;20434;-66
2021/05/18 11:32:58;;;;;;;3.83;1.30;;;12.20;99.90;;;;;;5052670;28;20447;-66
2021/05/18 11:35:25;;;;;;;2.60;0.80;;;12.40;99.90;;;;;;5052452;28;20451;-66
2021/05/18 11:38:06;;;;;;;0.90;0.70;;;12.30;99.90;;;;;;5052743;28;20491;-66
2021/05/18 11:40:40;;;;;;;2.40;1.67;;;12.00;99.90;;;;;;5052407;28;20478;-66
2021/05/18 11:43:23;;;;;;;1.77;0.93;;;12.20;99.90;;;;;;5052673;28;20422;-66
2021/05/18 11:45:53;;;;;;;4.93;1.30;;;12.50;99.90;;;;;;5052387;28;20443;-66
2021/05/18 11:48:21;;;;;;;1.83;1.00;;;12.60;99.90;;;;;;5052382;28;20419;-66
2021/05/18 11:51:02;;;;;;;2.10;0.90;;;12.80;99.90;;;;;;5052600;28;20804;-66
2021/05/18 11:53:31;;;;;;;1.73;1.00;;;12.40;99.90;;;;;;5051974;28;20431;-66
2021/05/18 11:55:59;;;;;;;1.43;0.80;;;12.40;99.90;;;;;;5051839;28;20516;-66
2021/05/18 11:58:26;;;;;;;0.90;0.70;;;12.50;99.90;;;;;;5052523;28;20842;-66
2021/05/18 12:01:05;;;;;;;1.00;0.80;;;12.90;99.90;;;;;;5051783;28;20528;-66
2021/05/18 12:03:35;;;;;;;1.93;0.70;;;13.10;99.90;;;;;;5051942;28;20488;-66
2021/05/18 12:06:03;;;;;;;1.10;0.83;;;13.40;99.90;;;;;;5052213;28;20459;-66
2021/05/18 12:08:32;;;;;;;1.80;0.80;;;13.20;99.90;;;;;;5051778;28;20433;-66
2021/05/18 12:11:18;;;;;;;2.60;0.90;;;12.90;99.90;;;;;;5052056;28;20435;-66
2021/05/18 12:13:46;;;;;;;1.37;0.60;;;12.90;99.90;;;;;;5052200;28;20908;-66
2021/05/18 12:16:13;;;;;;;0.80;0.50;;;12.60;99.90;;;;;;5052140;28;20865;-66
2021/05/18 12:18:43;;;;;;;2.20;0.60;;;12.10;99.90;;;;;;5051846;28;20427;-66
2021/05/18 12:21:17;;;;;;;0.90;0.67;;;11.90;99.90;;;;;;5051896;28;20477;-66
2021/05/18 12:23:45;;;;;;;1.10;0.60;;;11.60;99.90;;;;;;5051255;28;20433;-66
2021/05/18 12:26:17;;;;;;;3.57;0.70;;;11.90;99.90;;;;;;5051744;28;20447;-66
2021/05/18 12:28:55;;;;;;;0.80;0.60;;;12.20;99.90;;;;;;5051651;28;20442;-66
2021/05/18 12:31:35;;;;;;;0.80;0.60;;;12.50;99.90;;;;;;5051033;28;20442;-66
2021/05/18 12:34:05;;;;;;;1.00;0.70;;;12.70;99.90;;;;;;5051397;28;20470;-66
2021/05/18 12:36:45;;;;;;;2.27;0.77;;;12.80;99.90;;;;;;5051465;28;20458;-66
2021/05/18 12:39:13;;;;;;;1.67;0.60;;;12.80;99.90;;;;;;5051192;28;20423;-66
2021/05/18 12:41:55;;;;;;;1.33;0.63;;;12.80;99.90;;;;;;5051368;28;20532;-66
2021/05/18 12:44:24;;;;;;;2.07;1.70;;;13.00;99.90;;;;;;5051026;28;20443;-66
2021/05/18 12:47:03;;;;;;;1.00;0.60;;;12.90;99.90;;;;;;5051390;28;20451;-66
2021/05/18 12:49:34;;;;;;;1.00;0.60;;;12.90;99.90;;;;;;5053672;28;20438;-66
2021/05/18 12:52:03;;;;;;;3.00;0.80;;;12.90;99.90;;;;;;5051332;28;20439;-66
2021/05/18 12:54:41;;;;;;;1.00;0.60;;;13.20;99.90;;;;;;5050722;28;20439;-66
2021/05/18 12:57:09;;;;;;;2.90;0.60;;;13.50;99.90;;;;;;5050973;28;20835;-71
2021/05/18 12:59:55;;;;;;;1.10;0.60;;;14.20;99.90;;;;;;5050996;28;20827;-70
2021/05/18 13:02:29;;;;;;;0.90;0.60;;;14.30;99.90;;;;;;5050985;28;20446;-70
2021/05/18 13:05:14;;;;;;;4.60;2.03;;;14.50;99.90;;;;;;5050299;28;20492;-70
2021/05/18 13:07:42;;;;;;;1.93;0.70;;;14.70;99.90;;;;;;5051581;28;21024;-69
2021/05/18 13:10:19;;;;;;;1.00;0.63;;;14.30;99.90;;;;;;5051011;28;20497;-70
2021/05/18 13:12:46;;;;;;;1.37;0.70;;;13.80;99.90;;;;;;5051407;28;20432;-70
2021/05/18 13:15:20;;;;;;;1.10;0.90;;;13.60;99.90;;;;;;5050624;28;20470;-72
2021/05/18 13:17:54;;;;;;;1.27;0.60;;;13.10;99.90;;;;;;5050821;28;20429;-66
2021/05/18 13:20:23;;;;;;;1.57;0.70;;;12.60;99.90;;;;;;5050619;28;20994;-65
2021/05/18 13:22:54;;;;;;;1.40;0.80;;;12.30;99.90;;;;;;5051094;28;20444;-67
2021/05/18 13:28:05;;;;;;;0.90;0.70;;;11.60;99.90;;;;;;5050864;28;20457;-66
2021/05/18 13:30:33;;;;;;;0.80;0.60;;;11.20;99.90;;;;;;5050597;28;20449;-66
2021/05/18 13:33:00;;;;;;;3.53;0.87;;;11.30;99.90;;;;;;5050488;28;20442;-66
2021/05/18 13:35:30;;;;;;;1.57;0.70;;;11.90;99.90;;;;;;5050479;28;20454;-66
2021/05/18 13:37:58;;;;;;;2.03;0.80;;;12.70;99.90;;;;;;5050585;28;20477;-66
2021/05/18 13:40:26;;;;;;;1.80;1.00;;;13.20;99.90;;;;;;5050354;28;20467;-67
2021/05/18 13:42:53;;;;;;;1.73;0.80;;;13.60;99.90;;;;;;5050625;28;20427;-67
2021/05/18 13:45:22;;;;;;;4.67;1.10;;;14.20;99.90;;;;;;5050565;28;20458;-67
2021/05/18 13:47:52;;;;;;;2.23;1.00;;;14.50;99.90;;;;;;5050790;28;20439;-66
2021/05/18 13:50:19;;;;;;;2.90;1.37;;;14.90;99.90;;;;;;5050782;28;20427;-67
2021/05/18 13:52:46;;;;;;;5.17;3.03;;;14.90;99.90;;;;;;5050610;28;20493;-67
2021/05/18 13:55:13;;;;;;;9.10;1.40;;;14.90;99.90;;;;;;5049949;28;20462;-68
2021/05/18 13:57:40;;;;;;;2.03;0.90;;;15.10;99.90;;;;;;5051280;28;20431;-70
2021/05/18 14:00:10;;;;;;;1.30;0.83;;;15.20;99.90;;;;;;5050559;28;20484;-69
2021/05/18 14:02:37;;;;;;;4.10;0.80;;;15.00;99.90;;;;;;5050509;28;20846;-70
2021/05/18 14:05:06;;;;;;;0.90;0.60;;;14.90;99.90;;;;;;5050473;28;20485;-69
2021/05/18 14:08:03;;;;;;;2.40;0.80;;;14.60;99.90;;;;;;5049415;28;20450;-69
2021/05/18 14:10:30;;;;;;;1.10;0.80;;;14.40;99.90;;;;;;5050316;28;20443;-69
2021/05/18 14:12:57;;;;;;;1.40;0.70;;;14.30;99.90;;;;;;5050094;28;20924;-70
2021/05/18 14:15:24;;;;;;;6.20;1.00;;;14.00;99.90;;;;;;5050361;28;21006;-69
2021/05/18 14:17:50;;;;;;;1.93;0.70;;;13.40;99.90;;;;;;5053093;28;20923;-70
2021/05/18 14:20:17;;;;;;;1.97;1.77;;;13.30;99.90;;;;;;5054620;28;20812;-69
2021/05/18 14:22:44;;;;;;;1.80;0.80;;;13.20;99.90;;;;;;5053806;28;20779;-70
2021/05/18 14:25:12;;;;;;;0.90;0.70;;;13.10;99.90;;;;;;5053687;28;20460;-70
2021/05/18 14:27:39;;;;;;;0.97;0.67;;;13.10;99.90;;;;;;5052158;28;20935;-72
2021/05/18 14:30:10;;;;;;;1.83;0.70;;;12.90;99.90;;;;;;5055095;28;20465;-69
2021/05/18 14:32:36;;;;;;;0.93;0.60;;;13.10;99.90;;;;;;5073576;28;20434;-71
2021/05/18 14:35:04;;;;;;;1.10;0.70;;;13.10;99.90;;;;;;5063698;28;20950;-69
2021/05/18 14:37:31;;;;;;;1.00;0.63;;;13.00;99.90;;;;;;5073331;28;20430;-70
2021/05/18 14:40:04;;;;;;;3.73;0.70;;;13.00;99.90;;;;;;5073576;28;20425;-72
2021/05/18 14:45:32;;;;;;;0.90;0.60;;;12.50;99.90;;;;;;5011070;28;20833;-70
2021/05/18 14:48:21;;;;;;;0.90;0.57;;;12.20;99.90;;;;;;5057191;28;20443;-70
2021/05/18 14:53:50;;;;;;;1.50;0.80;;;11.60;99.90;;;;;;5053185;28;20429;-70
2021/05/18 14:56:17;;;;;;;1.93;0.70;;;11.30;99.90;;;;;;5052990;28;20470;-70
2021/05/18 14:58:46;;;;;;;1.10;0.70;;;11.00;99.90;;;;;;5053383;28;20442;-70
2021/05/18 15:01:12;;;;;;;2.23;1.27;;;10.70;99.90;;;;;;5053126;28;20471;-67
2021/05/18 15:03:39;;;;;;;2.03;0.90;;;10.30;99.90;;;;;;5052300;28;20439;-68
2021/05/18 15:06:06;;;;;;;1.73;0.80;;;10.00;99.90;;;;;;5053011;28;20463;-68
2021/05/18 15:08:33;;;;;;;1.23;0.90;;;9.80;99.90;;;;;;5052273;28;20446;-68
2021/05/18 15:11:02;;;;;;;2.07;0.90;;;9.80;99.90;;;;;;5053310;28;20475;-69
2021/05/18 15:13:31;;;;;;;2.37;0.90;;;9.90;99.90;;;;;;5052241;28;20530;-69
2021/05/18 15:15:59;;;;;;;0.90;0.70;;;10.10;99.90;;;;;;5053020;28;20498;-69
2021/05/18 15:18:26;;;;;;;2.07;0.70;;;10.60;99.90;;;;;;5053029;28;20442;-69
2021/05/18 15:20:52;;;;;;;3.53;1.07;;;11.00;99.90;;;;;;5043249;28;20463;-69
2021/05/18 15:23:19;;;;;;;1.40;0.70;;;11.40;99.90;;;;;;5041377;28;20497;-69
2021/05/18 15:25:45;;;;;;;1.00;0.63;;;11.60;99.90;;;;;;5042709;28;20450;-69
2021/05/18 15:28:13;;;;;;;2.93;0.73;;;12.00;99.90;;;;;;5041427;28;20962;-70
2021/05/18 15:30:39;;;;;;;4.40;0.80;;;12.50;99.90;;;;;;5042073;28;20432;-69
2021/05/18 15:33:07;;;;;;;1.63;1.53;;;12.80;99.90;;;;;;5048804;28;20451;-69
2021/05/18 15:35:34;;;;;;;1.30;0.70;;;13.30;99.90;;;;;;5052544;28;20839;-69
2021/05/18 15:38:02;;;;;;;1.83;0.80;;;13.50;99.90;;;;;;5051952;28;20454;-70
2021/05/18 15:40:29;;;;;;;3.17;0.70;;;13.70;99.90;;;;;;5052625;28;20540;-69
2021/05/18 15:42:56;;;;;;;1.77;0.90;;;13.80;99.90;;;;;;5052508;28;20443;-69
2021/05/18 15:45:26;;;;;;;0.90;0.60;;;13.60;99.90;;;;;;5051930;28;20454;-70
2021/05/18 15:47:52;;;;;;;1.00;0.70;;;13.40;99.90;;;;;;5032613;28;20443;-69
2021/05/18 15:50:20;;;;;;;1.00;0.90;;;13.20;99.90;;;;;;5032350;28;20766;-69
2021/05/18 15:52:47;;;;;;;1.10;0.83;;;12.80;99.90;;;;;;5032521;28;20847;-70
2021/05/18 15:55:14;;;;;;;2.87;0.80;;;12.30;99.90;;;;;;5032212;28;20459;-69
2021/05/18 15:57:40;;;;;;;1.33;0.80;;;12.20;99.90;;;;;;5033186;28;20451;-68
2021/05/18 16:00:08;;;;;;;2.33;1.33;;;12.10;99.90;;;;;;5052076;28;20924;-69
2021/05/18 16:02:35;;;;;;;1.27;0.70;;;12.20;99.90;;;;;;5052106;28;20439;-68
2021/05/18 16:05:01;;;;;;;1.33;0.80;;;12.10;99.90;;;;;;5052007;28;20427;-69
2021/05/18 16:07:29;;;;;;;1.00;0.73;;;12.30;99.90;;;;;;5052122;28;20443;-69
2021/05/18 16:09:56;;;;;;;1.23;0.63;;;12.30;99.90;;;;;;5052148;28;20419;-69
2021/05/18 16:12:23;;;;;;;1.73;0.70;;;12.30;99.90;;;;;;5052138;28;20439;-68
2021/05/18 16:14:52;;;;;;;1.30;0.70;;;12.30;99.90;;;;;;5051264;28;20442;-70
2021/05/18 16:17:21;;;;;;;4.07;1.00;;;12.30;99.90;;;;;;5051825;28;20493;-69
2021/05/18 16:19:48;;;;;;;0.90;0.60;;;12.20;99.90;;;;;;5049310;28;20552;-68
2021/05/18 16:22:15;;;;;;;0.90;0.73;;;12.10;99.90;;;;;;5035831;28;20482;-67
2021/05/18 16:24:43;;;;;;;1.63;0.87;;;12.20;99.90;;;;;;5042825;28;20431;-67
2021/05/18 16:27:14;;;;;;;1.23;0.80;;;12.20;99.90;;;;;;5040420;28;20491;-69
2021/05/18 16:29:41;;;;;;;1.17;0.87;;;12.60;99.90;;;;;;5042139;28;21946;-71
2021/05/18 16:32:08;;;;;;;1.00;0.70;;;13.10;99.90;;;;;;5040035;28;20790;-72
2021/05/18 16:34:35;;;;;;;1.50;0.90;;;13.70;99.90;;;;;;5039802;28;20443;-70
2021/05/18 16:37:01;;;;;;;1.03;0.90;;;14.40;99.90;;;;;;5041401;28;20452;-69
2021/05/18 16:39:28;;;;;;;2.50;0.67;;;15.00;99.90;;;;;;5040956;28;20532;-68
2021/05/18 16:41:56;;;;;;;1.27;0.80;;;15.30;99.90;;;;;;5041717;28;20471;-68
2021/05/18 16:44:23;;;;;;;1.10;0.77;;;15.30;99.90;;;;;;5040661;28;20459;-68
2021/05/18 16:46:50;;;;;;;1.80;0.70;;;15.40;99.90;;;;;;5039850;28;20464;-67
2021/05/18 16:49:18;;;;;;;1.43;0.90;;;15.20;99.90;;;;;;5044388;28;20442;-68
2021/05/18 16:51:45;;;;;;;1.27;0.60;;;15.10;99.90;;;;;;5047463;28;20456;-68
2021/05/18 16:54:12;;;;;;;1.10;0.70;;;14.80;99.90;;;;;;5031151;28;20444;-68
2021/05/18 16:56:40;;;;;;;2.20;0.73;;;14.50;99.90;;;;;;5031118;28;20948;-68
2021/05/18 16:59:08;;;;;;;1.80;0.80;;;14.40;99.90;;;;;;5046614;28;20432;-68
2021/05/18 17:01:35;;;;;;;1.43;0.60;;;14.40;99.90;;;;;;5050877;28;20504;-71
2021/05/18 17:04:02;;;;;;;0.90;0.60;;;14.30;99.90;;;;;;5047392;28;20443;-69
2021/05/18 17:06:29;;;;;;;3.93;0.80;;;14.10;99.90;;;;;;5050751;28;20555;-69
2021/05/18 17:08:56;;;;;;;1.67;0.70;;;13.90;99.90;;;;;;5050681;28;20431;-69
2021/05/18 17:11:23;;;;;;;1.10;0.70;;;13.60;99.90;;;;;;5038621;28;20447;-70
2021/05/18 17:13:49;;;;;;;1.10;0.70;;;13.60;99.90;;;;;;5037076;28;20505;-68
2021/05/18 17:16:17;;;;;;;1.60;0.93;;;13.50;99.90;;;;;;5050378;28;20773;-67
2021/05/18 17:18:44;;;;;;;2.43;1.20;;;13.50;99.90;;;;;;5050670;28;20761;-67
2021/05/18 17:21:10;;;;;;;1.90;0.70;;;13.40;99.90;;;;;;5049616;28;20470;-68
2021/05/18 17:23:38;;;;;;;2.50;0.83;;;13.30;99.90;;;;;;5050526;28;20430;-68
2021/05/18 17:26:10;;;;;;;0.90;0.60;;;13.20;99.90;;;;;;5050870;28;20797;-67
2021/05/18 17:28:38;;;;;;;1.33;0.70;;;13.00;99.90;;;;;;5049743;28;20492;-68
2021/05/18 17:31:04;;;;;;;0.90;0.60;;;12.80;99.90;;;;;;5050729;28;20474;-68